createdAt,value
2022-12-11T00:00:50.509Z,13.10
2022-12-11T00:03:39.177Z,15.17
2022-12-11T00:06:27.288Z,14.30
2022-12-11T00:09:17.243Z,16.03
2022-12-11T00:12:07.397Z,15.77
2022-12-11T00:14:55.339Z,15.00
2022-12-11T00:17:43.344Z,16.07
2022-12-11T00:20:31.338Z,17.47
2022-12-11T00:23:19.288Z,16.93
2022-12-11T00:26:10.275Z,16.10
2022-12-11T00:28:59.056Z,16.77
2022-12-11T00:31:47.033Z,16.57
2022-12-11T00:34:35.055Z,18.43
2022-12-11T00:37:23.630Z,16.57
2022-12-11T00:40:12.416Z,17.97
2022-12-11T00:43:02.049Z,18.47
2022-12-11T00:45:50.084Z,17.40
2022-12-11T00:48:38.197Z,17.57
2022-12-11T00:51:26.208Z,19.17
2022-12-11T00:54:14.603Z,19.27
2022-12-11T00:57:02.589Z,18.33
2022-12-11T00:59:51.872Z,20.47
2022-12-11T01:02:39.992Z,18.53
2022-12-11T01:05:28.428Z,22.13
2022-12-11T01:08:16.438Z,19.20
2022-12-11T01:11:07.121Z,20.37
2022-12-11T01:13:55.078Z,20.27
2022-12-11T01:16:44.413Z,19.90
2022-12-11T01:19:33.261Z,20.87
2022-12-11T01:22:21.863Z,25.03
2022-12-11T01:25:10.912Z,20.33
2022-12-11T01:27:58.997Z,21.90
2022-12-11T01:30:47.217Z,22.00
2022-12-11T01:33:36.590Z,22.60
2022-12-11T01:36:24.690Z,22.17
2022-12-11T01:39:12.576Z,25.33
2022-12-11T01:42:01.937Z,25.70
2022-12-11T01:45:27.441Z,21.80
2022-12-11T01:48:19.402Z,20.57
2022-12-11T01:51:08.711Z,22.93
2022-12-11T01:54:01.629Z,21.07
2022-12-11T01:56:52.925Z,21.27
2022-12-11T01:59:44.150Z,21.60
2022-12-11T02:02:32.827Z,21.70
2022-12-11T02:05:20.845Z,21.97
2022-12-11T02:08:10.575Z,23.10
2022-12-11T02:11:08.132Z,21.20
2022-12-11T02:14:03.954Z,22.53
2022-12-11T02:16:59.023Z,23.40
2022-12-11T02:19:58.555Z,22.87
2022-12-11T02:23:07.052Z,20.23
2022-12-11T02:26:07.833Z,21.90
2022-12-11T02:28:59.707Z,23.00
2022-12-11T02:31:52.767Z,20.23
2022-12-11T02:34:44.011Z,21.20
2022-12-11T02:37:36.974Z,23.43
2022-12-11T02:40:29.147Z,22.03
2022-12-11T02:43:19.017Z,20.93
2022-12-11T02:46:09.500Z,22.60
2022-12-11T02:48:58.788Z,23.03
2022-12-11T02:51:46.826Z,21.80
2022-12-11T02:54:38.592Z,23.90
2022-12-11T02:57:32.648Z,23.93
2022-12-11T03:00:21.529Z,23.70
2022-12-11T03:03:10.818Z,23.77
2022-12-11T03:05:58.798Z,27.07
2022-12-11T03:08:46.880Z,23.50
2022-12-11T03:11:34.893Z,24.00
2022-12-11T03:14:22.963Z,23.63
2022-12-11T03:17:16.047Z,27.03
2022-12-11T03:20:13.773Z,23.40
2022-12-11T03:23:10.346Z,23.33
2022-12-11T03:26:02.311Z,22.73
2022-12-11T03:28:54.134Z,26.30
2022-12-11T03:31:45.017Z,25.67
2022-12-11T03:34:42.312Z,25.90
2022-12-11T03:37:36.328Z,24.07
2022-12-11T03:40:26.617Z,25.70
2022-12-11T03:43:15.152Z,24.67
2022-12-11T03:46:03.579Z,26.43
2022-12-11T03:48:52.827Z,26.27
2022-12-11T03:51:42.459Z,26.50
2022-12-11T03:54:32.302Z,24.97
2022-12-11T03:57:26.193Z,26.73
2022-12-11T04:00:17.068Z,29.33
2022-12-11T04:03:14.592Z,27.13
2022-12-11T04:06:02.835Z,27.20
2022-12-11T04:08:50.857Z,28.67
2022-12-11T04:11:42.696Z,25.50
2022-12-11T04:14:48.468Z,27.03
2022-12-11T04:17:55.109Z,25.90
2022-12-11T04:21:00.459Z,23.97
2022-12-11T04:24:06.554Z,26.53
2022-12-11T04:26:55.925Z,26.33
2022-12-11T04:29:43.896Z,27.07
2022-12-11T04:32:31.866Z,25.70
2022-12-11T04:35:20.034Z,24.87
2022-12-11T04:38:07.993Z,25.80
2022-12-11T04:41:00.017Z,28.80
2022-12-11T04:43:49.974Z,28.37
2022-12-11T04:46:37.986Z,28.60
2022-12-11T04:49:26.104Z,31.27
2022-12-11T04:52:14.118Z,30.90
2022-12-11T04:55:02.042Z,28.10
2022-12-11T04:57:50.228Z,27.33
2022-12-11T05:00:41.049Z,28.00
2022-12-11T05:03:28.989Z,29.80
2022-12-11T05:06:17.113Z,31.33
2022-12-11T05:09:05.173Z,26.90
2022-12-11T05:11:53.340Z,31.50
2022-12-11T05:14:41.287Z,28.10
2022-12-11T05:17:30.548Z,32.73
2022-12-11T05:20:19.192Z,27.30
2022-12-11T05:23:07.390Z,28.13
2022-12-11T05:25:55.786Z,27.90
2022-12-11T05:28:44.388Z,28.33
2022-12-11T05:31:32.354Z,32.97
2022-12-11T05:34:21.822Z,35.30
2022-12-11T05:37:10.052Z,27.47
2022-12-11T05:39:57.986Z,31.37
2022-12-11T05:42:46.965Z,31.73
2022-12-11T05:45:34.999Z,29.80
2022-12-11T05:48:23.551Z,29.20
2022-12-11T05:51:15.114Z,32.73
2022-12-11T05:54:03.537Z,27.30
2022-12-11T05:56:52.442Z,32.27
2022-12-11T05:59:40.486Z,30.87
2022-12-11T06:02:28.545Z,27.43
2022-12-11T06:05:16.638Z,32.13
2022-12-11T06:08:06.310Z,29.63
2022-12-11T06:10:54.274Z,29.77
2022-12-11T06:13:42.307Z,26.27
2022-12-11T06:16:30.408Z,27.17
2022-12-11T06:19:18.960Z,27.37
2022-12-11T06:22:06.934Z,28.10
2022-12-11T06:24:56.226Z,31.07
2022-12-11T06:27:44.197Z,24.33
2022-12-11T06:30:37.637Z,23.73
2022-12-11T06:33:27.702Z,24.37
2022-12-11T06:36:17.516Z,25.03
2022-12-11T06:39:05.502Z,22.70
2022-12-11T06:41:54.795Z,21.87
2022-12-11T06:44:42.745Z,22.10
2022-12-11T06:47:31.627Z,19.27
2022-12-11T06:50:19.643Z,20.93
2022-12-11T06:53:07.640Z,19.30
2022-12-11T06:55:55.658Z,20.70
2022-12-11T06:58:45.539Z,19.93
2022-12-11T07:01:33.585Z,20.90
2022-12-11T07:04:02.078Z,20.67
2022-12-11T07:06:30.360Z,23.13
2022-12-11T07:08:58.242Z,25.70
2022-12-11T07:11:25.885Z,20.77
2022-12-11T07:13:54.945Z,24.37
2022-12-11T07:16:22.644Z,23.87
2022-12-11T07:18:52.305Z,22.70
2022-12-11T07:21:21.275Z,24.77
2022-12-11T07:23:49.388Z,27.03
2022-12-11T07:26:19.131Z,25.00
2022-12-11T07:28:47.320Z,25.87
2022-12-11T07:31:18.762Z,25.17
2022-12-11T07:33:47.489Z,29.60
2022-12-11T07:36:16.473Z,29.47
2022-12-11T07:38:44.148Z,28.80
2022-12-11T07:41:13.732Z,30.00
2022-12-11T07:43:42.368Z,25.90
2022-12-11T07:46:13.754Z,27.40
2022-12-11T07:48:46.612Z,29.63
2022-12-11T07:51:16.589Z,26.30
2022-12-11T07:53:45.250Z,29.80
2022-12-11T07:56:12.911Z,30.07
2022-12-11T07:58:40.759Z,29.37
2022-12-11T08:01:12.770Z,28.67
2022-12-11T08:03:43.035Z,29.17
2022-12-11T08:06:11.739Z,29.63
2022-12-11T08:08:40.945Z,27.40
2022-12-11T08:11:11.301Z,29.37
2022-12-11T08:13:39.484Z,26.10
2022-12-11T08:16:08.734Z,28.47
2022-12-11T08:18:37.768Z,27.30
2022-12-11T08:21:08.028Z,27.30
2022-12-11T08:23:35.946Z,27.40
2022-12-11T08:26:04.970Z,26.40
2022-12-11T08:28:33.050Z,29.77
2022-12-11T08:31:00.937Z,30.53
2022-12-11T08:33:28.876Z,28.23
2022-12-11T08:35:56.553Z,30.67
2022-12-11T08:38:25.868Z,29.13
2022-12-11T08:40:53.568Z,29.93
2022-12-11T08:43:21.292Z,34.97
2022-12-11T08:45:49.303Z,34.80
2022-12-11T08:48:17.264Z,34.97
2022-12-11T08:50:45.031Z,35.23
2022-12-11T08:53:13.585Z,34.07
2022-12-11T08:55:42.663Z,32.77
2022-12-11T08:58:10.358Z,31.73
2022-12-11T09:00:37.984Z,31.47
2022-12-11T09:03:11.213Z,36.33
2022-12-11T09:05:40.752Z,33.13
2022-12-11T09:08:08.483Z,31.83
2022-12-11T09:10:36.228Z,31.33
2022-12-11T09:13:05.402Z,31.27
2022-12-11T09:15:33.186Z,29.87
2022-12-11T09:18:00.875Z,31.40
2022-12-11T09:20:28.620Z,29.67
2022-12-11T09:22:56.634Z,27.70
2022-12-11T09:25:24.684Z,29.53
2022-12-11T09:27:52.348Z,31.10
2022-12-11T09:30:21.595Z,31.33
2022-12-11T09:32:49.347Z,31.23
2022-12-11T09:35:17.155Z,31.10
2022-12-11T09:37:44.889Z,31.17
2022-12-11T09:40:13.668Z,34.60
2022-12-11T09:42:51.745Z,35.93
2022-12-11T09:45:21.699Z,27.73
2022-12-11T09:47:52.726Z,36.17
2022-12-11T09:50:24.331Z,36.07
2022-12-11T09:53:06.263Z,32.23
2022-12-11T09:55:44.112Z,31.03
2022-12-11T09:58:23.261Z,35.50
2022-12-11T10:00:59.395Z,33.97
2022-12-11T10:03:39.578Z,33.83
2022-12-11T10:06:17.613Z,37.67
2022-12-11T10:08:51.742Z,40.77
2022-12-11T10:11:35.321Z,36.17
2022-12-11T10:14:09.650Z,38.23
2022-12-11T10:16:43.352Z,37.70
2022-12-11T10:19:17.323Z,33.17
2022-12-11T10:21:45.943Z,37.43
2022-12-11T10:24:48.860Z,36.43
2022-12-11T10:27:19.167Z,33.83
2022-12-11T10:29:47.264Z,37.67
2022-12-11T10:32:24.411Z,34.23
2022-12-11T10:34:59.531Z,38.47
2022-12-11T10:37:27.361Z,37.50
2022-12-11T10:39:55.050Z,37.73
2022-12-11T10:42:24.138Z,45.63
2022-12-11T10:45:00.426Z,43.97
2022-12-11T10:47:29.770Z,45.23
2022-12-11T10:49:59.680Z,43.93
2022-12-11T10:52:31.539Z,46.27
2022-12-11T10:55:03.189Z,45.13
2022-12-11T10:57:33.690Z,49.57
2022-12-11T11:00:02.130Z,43.40
2022-12-11T11:02:35.779Z,51.10
2022-12-11T11:05:16.915Z,45.47
2022-12-11T11:07:44.781Z,44.77
2022-12-11T11:10:17.385Z,46.50
2022-12-11T11:12:47.549Z,44.77
2022-12-11T11:15:17.414Z,43.67
2022-12-11T11:17:55.035Z,50.27
2022-12-11T11:20:26.748Z,46.07
2022-12-11T11:22:57.046Z,54.40
2022-12-11T11:25:26.951Z,50.13
2022-12-11T11:27:57.293Z,51.73
2022-12-11T11:30:27.703Z,56.97
2022-12-11T11:33:00.625Z,59.67
2022-12-11T11:35:30.573Z,62.80
2022-12-11T11:38:04.081Z,68.17
2022-12-11T11:40:37.798Z,63.33
2022-12-11T11:43:14.039Z,68.57
2022-12-11T11:45:47.755Z,64.83
2022-12-11T11:48:29.519Z,57.53
2022-12-11T11:50:57.956Z,65.33
2022-12-11T11:53:32.842Z,63.53
2022-12-11T11:56:08.300Z,64.67
2022-12-11T11:58:41.698Z,67.60
2022-12-11T12:01:16.409Z,59.33
2022-12-11T12:03:48.188Z,64.93
2022-12-11T12:06:26.491Z,68.63
2022-12-11T12:09:03.529Z,60.30
2022-12-11T12:11:36.298Z,59.47
2022-12-11T12:14:43.621Z,63.10
2022-12-11T12:17:15.169Z,58.57
2022-12-11T12:19:50.987Z,63.27
2022-12-11T12:22:55.029Z,64.50
2022-12-11T12:25:27.965Z,59.63
2022-12-11T12:28:05.228Z,67.67
2022-12-11T12:30:42.221Z,67.50
2022-12-11T12:33:21.353Z,70.60
2022-12-11T12:36:03.554Z,68.73
2022-12-11T12:38:43.813Z,60.03
2022-12-11T12:41:19.453Z,64.93
2022-12-11T12:44:03.488Z,66.53
2022-12-11T12:46:44.724Z,64.03
2022-12-11T12:49:17.832Z,66.00
2022-12-11T12:51:47.966Z,71.77
2022-12-11T12:54:18.119Z,64.93
2022-12-11T12:56:47.171Z,71.73
2022-12-11T12:59:23.172Z,79.53
2022-12-11T13:01:55.180Z,63.70
2022-12-11T13:04:55.983Z,69.13
2022-12-11T13:07:29.711Z,58.87
2022-12-11T13:10:06.157Z,66.43
2022-12-11T13:12:42.390Z,66.50
2022-12-11T13:15:33.361Z,64.47
2022-12-11T13:18:03.028Z,63.60
2022-12-11T13:20:33.019Z,80.63
2022-12-11T13:23:27.093Z,67.40
2022-12-11T13:25:56.695Z,70.70
2022-12-11T13:28:28.339Z,75.50
2022-12-11T13:31:01.650Z,78.17
2022-12-11T13:33:30.555Z,77.93
2022-12-11T13:36:24.972Z,82.47
2022-12-11T13:38:57.782Z,75.37
2022-12-11T13:41:25.812Z,78.53
2022-12-11T13:43:54.515Z,81.97
2022-12-11T13:46:27.602Z,79.17
2022-12-11T13:49:00.762Z,78.27
2022-12-11T13:51:31.461Z,78.03
2022-12-11T13:54:17.771Z,73.17
2022-12-11T13:56:56.769Z,71.27
2022-12-11T13:59:30.428Z,83.33
2022-12-11T14:02:01.567Z,69.30
2022-12-11T14:04:30.404Z,70.90
2022-12-11T14:06:59.460Z,71.40
2022-12-11T14:09:29.340Z,70.37
2022-12-11T14:11:59.174Z,72.93
2022-12-11T14:14:36.349Z,77.50
2022-12-11T14:17:04.668Z,78.60
2022-12-11T14:19:32.414Z,69.47
2022-12-11T14:22:02.130Z,75.00
2022-12-11T14:24:32.015Z,73.23
2022-12-11T14:27:00.041Z,69.07
2022-12-11T14:29:30.716Z,73.00
2022-12-11T14:32:03.395Z,68.67
2022-12-11T14:34:36.480Z,66.83
2022-12-11T14:37:06.999Z,63.17
2022-12-11T14:39:41.758Z,68.63
2022-12-11T14:42:14.888Z,69.93
2022-12-11T14:44:50.247Z,69.33
2022-12-11T14:47:22.652Z,64.17
2022-12-11T14:49:55.873Z,64.33
2022-12-11T14:52:28.645Z,66.97
2022-12-11T14:55:04.257Z,60.60
2022-12-11T14:57:34.873Z,60.13
2022-12-11T15:00:03.375Z,66.73
2022-12-11T15:02:33.451Z,63.97
2022-12-11T15:05:07.051Z,56.57
2022-12-11T15:07:35.010Z,61.00
2022-12-11T15:10:05.055Z,62.40
2022-12-11T15:12:32.962Z,64.10
2022-12-11T15:15:03.779Z,57.70
2022-12-11T15:17:33.392Z,56.83
2022-12-11T15:20:07.115Z,67.00
2022-12-11T15:22:36.095Z,61.97
2022-12-11T15:25:05.879Z,63.43
2022-12-11T15:27:36.743Z,66.90
2022-12-11T15:30:17.801Z,60.07
2022-12-11T15:32:45.565Z,54.97
2022-12-11T15:35:23.973Z,60.40
2022-12-11T15:37:53.680Z,60.70
2022-12-11T15:40:23.405Z,60.57
2022-12-11T15:42:52.527Z,70.60
2022-12-11T15:45:22.810Z,60.23
2022-12-11T15:47:51.610Z,59.37
2022-12-11T15:50:23.115Z,63.33
2022-12-11T15:52:52.252Z,61.10
2022-12-11T15:55:21.811Z,64.27
2022-12-11T15:57:55.271Z,61.83
2022-12-11T16:00:24.338Z,57.23
2022-12-11T16:02:52.559Z,60.77
2022-12-11T16:05:21.644Z,65.63
2022-12-11T16:07:52.048Z,62.20
2022-12-11T16:10:21.298Z,62.37
2022-12-11T16:12:48.993Z,62.17
2022-12-11T16:15:23.499Z,63.93
2022-12-11T16:17:59.750Z,58.73
2022-12-11T16:20:27.453Z,62.47
2022-12-11T16:22:55.138Z,63.13
2022-12-11T16:25:22.798Z,60.03
2022-12-11T16:27:51.106Z,57.47
2022-12-11T16:30:20.329Z,61.83
2022-12-11T16:32:47.898Z,66.97
2022-12-11T16:35:15.751Z,64.87
2022-12-11T16:37:43.709Z,58.10
2022-12-11T16:40:12.624Z,58.20
2022-12-11T16:42:40.273Z,58.17
2022-12-11T16:45:13.312Z,57.07
2022-12-11T16:47:42.762Z,55.77
2022-12-11T16:50:13.727Z,55.97
2022-12-11T16:52:41.583Z,61.70
2022-12-11T16:55:10.732Z,55.63
2022-12-11T16:57:38.875Z,56.40
2022-12-11T17:00:09.140Z,50.70
2022-12-11T17:02:37.250Z,51.07
2022-12-11T17:05:07.495Z,48.03
2022-12-11T17:07:35.673Z,50.33
2022-12-11T17:10:03.471Z,49.97
2022-12-11T17:12:31.555Z,45.87
2022-12-11T17:14:59.842Z,47.17
2022-12-11T17:17:27.491Z,45.37
2022-12-11T17:19:56.853Z,53.00
2022-12-11T17:22:25.904Z,46.90
2022-12-11T17:24:53.681Z,52.13
2022-12-11T17:27:21.358Z,47.87
2022-12-11T17:29:50.768Z,60.30
2022-12-11T17:32:18.899Z,58.03
2022-12-11T17:34:48.497Z,52.70
2022-12-11T17:37:16.272Z,54.00
2022-12-11T17:39:47.153Z,49.40
2022-12-11T17:42:14.879Z,52.57
2022-12-11T17:44:45.283Z,53.53
2022-12-11T17:47:13.068Z,53.33
2022-12-11T17:49:41.123Z,50.73
2022-12-11T17:52:09.226Z,50.53
2022-12-11T17:54:36.854Z,52.90
2022-12-11T17:57:06.439Z,58.27
2022-12-11T17:59:34.557Z,54.40
2022-12-11T18:02:02.402Z,52.30
2022-12-11T18:04:30.212Z,48.67
2022-12-11T18:06:57.858Z,49.13
2022-12-11T18:09:25.532Z,49.03
2022-12-11T18:11:53.227Z,53.23
2022-12-11T18:14:22.268Z,57.30
2022-12-11T18:16:49.971Z,46.43
2022-12-11T18:19:19.346Z,56.17
2022-12-11T18:21:47.084Z,53.83
2022-12-11T18:24:14.763Z,48.73
2022-12-11T18:26:43.632Z,47.33
2022-12-11T18:29:11.352Z,54.60
2022-12-11T18:31:42.771Z,56.40
2022-12-11T18:34:11.974Z,54.13
2022-12-11T18:36:40.650Z,52.27
2022-12-11T18:39:08.407Z,54.07
2022-12-11T18:41:36.049Z,54.57
2022-12-11T18:44:08.107Z,59.03
2022-12-11T18:46:39.242Z,45.83
2022-12-11T18:49:08.286Z,49.77
2022-12-11T18:51:36.001Z,50.23
2022-12-11T18:54:03.733Z,52.63
2022-12-11T18:56:31.449Z,58.13
2022-12-11T18:58:59.118Z,58.90
2022-12-11T19:01:28.767Z,61.93
2022-12-11T19:04:03.275Z,55.20
2022-12-11T19:06:35.318Z,62.33
2022-12-11T19:09:05.635Z,54.93
2022-12-11T19:11:34.768Z,60.90
2022-12-11T19:14:02.513Z,54.47
2022-12-11T19:16:33.553Z,60.50
2022-12-11T19:19:04.032Z,56.97
2022-12-11T19:21:35.245Z,55.73
2022-12-11T19:24:02.941Z,50.70
2022-12-11T19:26:31.283Z,54.83
2022-12-11T19:29:00.135Z,51.73
2022-12-11T19:31:30.835Z,55.77
2022-12-11T19:34:00.348Z,50.83
2022-12-11T19:36:29.570Z,50.57
2022-12-11T19:39:01.952Z,57.10
2022-12-11T19:41:31.769Z,53.87
2022-12-11T19:44:00.637Z,54.43
2022-12-11T19:46:29.665Z,50.30
2022-12-11T19:48:58.557Z,46.73
2022-12-11T19:51:29.581Z,46.93
2022-12-11T19:53:59.753Z,50.43
2022-12-11T19:56:27.463Z,46.87
2022-12-11T19:58:55.238Z,52.40
2022-12-11T20:01:26.335Z,50.50
2022-12-11T20:03:54.991Z,51.13
2022-12-11T20:06:23.564Z,48.90
2022-12-11T20:08:51.603Z,49.50
2022-12-11T20:11:20.799Z,49.90
2022-12-11T20:13:49.231Z,49.37
2022-12-11T20:16:20.024Z,48.90
2022-12-11T20:18:57.203Z,44.40
2022-12-11T20:21:27.144Z,40.97
2022-12-11T20:23:55.049Z,45.17
2022-12-11T20:26:26.153Z,49.90
2022-12-11T20:28:54.155Z,42.60
2022-12-11T20:31:24.032Z,47.50
2022-12-11T20:33:52.949Z,44.57
2022-12-11T20:36:22.453Z,45.87
2022-12-11T20:38:51.021Z,48.43
2022-12-11T20:41:21.325Z,44.53
2022-12-11T20:43:50.625Z,43.07
2022-12-11T20:46:20.268Z,39.17
2022-12-11T20:48:48.346Z,43.13
2022-12-11T20:51:25.253Z,43.97
2022-12-11T20:53:58.186Z,43.77
2022-12-11T20:56:27.345Z,41.10
2022-12-11T20:58:56.631Z,49.37
2022-12-11T21:01:26.405Z,46.97
2022-12-11T21:04:14.390Z,43.17
2022-12-11T21:07:02.280Z,39.17
2022-12-11T21:09:50.210Z,39.63
2022-12-11T21:12:38.167Z,42.40
2022-12-11T21:15:27.670Z,45.93
2022-12-11T21:18:15.566Z,43.20
2022-12-11T21:21:04.011Z,41.27
2022-12-11T21:23:52.277Z,37.20
2022-12-11T21:26:40.230Z,36.60
2022-12-11T21:29:29.961Z,45.73
2022-12-11T21:32:19.733Z,37.43
2022-12-11T21:35:08.111Z,41.87
2022-12-11T21:37:56.063Z,42.80
2022-12-11T21:40:44.416Z,42.73
2022-12-11T21:43:32.747Z,41.90
2022-12-11T21:46:22.680Z,49.13
2022-12-11T21:49:12.087Z,40.40
2022-12-11T21:52:00.406Z,42.07
2022-12-11T21:54:49.209Z,39.27
2022-12-11T21:57:37.165Z,42.47
2022-12-11T22:00:25.376Z,44.53
2022-12-11T22:03:13.329Z,50.23
2022-12-11T22:06:02.615Z,42.63
2022-12-11T22:08:51.452Z,42.77
2022-12-11T22:11:40.127Z,41.87
2022-12-11T22:14:30.712Z,44.33
2022-12-11T22:17:20.620Z,44.10
2022-12-11T22:20:10.009Z,47.33
2022-12-11T22:22:59.469Z,45.23
2022-12-11T22:25:48.063Z,48.73
2022-12-11T22:28:36.240Z,43.33
2022-12-11T22:31:27.819Z,45.33
2022-12-11T22:34:15.826Z,43.60
2022-12-11T22:37:03.800Z,45.10
2022-12-11T22:39:53.071Z,44.83
2022-12-11T22:42:41.406Z,47.80
2022-12-11T22:45:29.338Z,43.93
2022-12-11T22:48:17.313Z,45.83
2022-12-11T22:51:06.755Z,48.43
2022-12-11T22:53:54.789Z,46.23
2022-12-11T22:56:44.114Z,43.93
2022-12-11T22:59:32.137Z,48.13
2022-12-11T23:02:20.141Z,48.20
2022-12-11T23:05:09.342Z,49.43
2022-12-11T23:07:57.537Z,50.63
2022-12-11T23:10:46.247Z,51.53
2022-12-11T23:13:35.929Z,47.23
2022-12-11T23:16:26.645Z,45.40
2022-12-11T23:19:18.519Z,47.67
2022-12-11T23:22:08.971Z,49.80
2022-12-11T23:24:56.909Z,50.70
2022-12-11T23:27:45.764Z,50.33
2022-12-11T23:30:35.093Z,45.93
2022-12-11T23:33:23.840Z,43.33
2022-12-11T23:36:12.073Z,37.87
2022-12-11T23:39:00.174Z,37.53
2022-12-11T23:41:48.236Z,37.77
2022-12-11T23:44:37.080Z,35.87
2022-12-11T23:47:26.432Z,34.73
2022-12-11T23:50:14.371Z,33.50
2022-12-11T23:53:02.334Z,36.13
2022-12-11T23:55:50.245Z,31.40
2022-12-11T23:58:39.262Z,32.03
